Time;durP1;ratioP1;P1;durP2;ratioP2;P2;SDS_P1;SDS_P2;PMS_P1;PMS_P2;Temp;Humidity;BMP_temperature;BMP_pressure;BME280_temperature;BME280_humidity;BME280_pressure;Samples;Min_cycle;Max_cycle;Signal;HPM_P1;HPM_P2
2024/01/22 00:02:10;;;;;;;9.50;5.55;;;3.40;96.70;;;;;;5071825;28;20079;-77
2024/01/22 00:04:38;;;;;;;8.75;5.57;;;3.30;96.70;;;;;;5065251;28;20776;-79
2024/01/22 00:07:10;;;;;;;11.30;6.40;;;3.40;96.70;;;;;;5069362;28;20600;-78
2024/01/22 00:09:38;;;;;;;9.48;5.72;;;3.40;96.70;;;;;;5064615;28;20547;-78
2024/01/22 00:12:06;;;;;;;10.32;6.03;;;3.30;96.70;;;;;;5065716;28;20052;-78
2024/01/22 00:14:37;;;;;;;11.13;6.00;;;3.30;96.70;;;;;;5066169;28;20052;-78
2024/01/22 00:17:06;;;;;;;10.73;6.70;;;3.30;96.70;;;;;;5060810;28;20756;-78
2024/01/22 00:19:36;;;;;;;11.25;6.25;;;3.30;96.70;;;;;;5065027;28;20056;-78
2024/01/22 00:22:05;;;;;;;13.07;7.00;;;3.30;96.70;;;;;;5075472;28;20056;-78
2024/01/22 00:24:33;;;;;;;10.40;6.57;;;3.30;96.70;;;;;;5060372;28;20441;-78
2024/01/22 00:27:02;;;;;;;10.18;5.75;;;3.30;96.70;;;;;;5068154;28;20064;-78
2024/01/22 00:29:31;;;;;;;12.27;6.28;;;3.20;96.70;;;;;;5070440;28;20062;-78
2024/01/22 00:32:01;;;;;;;11.75;6.03;;;3.30;96.70;;;;;;5072330;28;20674;-78
2024/01/22 00:34:30;;;;;;;10.85;5.82;;;3.30;96.70;;;;;;5057696;28;20667;-78
2024/01/22 00:37:29;;;;;;;8.07;5.18;;;3.20;96.70;;;;;;5064561;28;20779;-78
2024/01/22 00:39:58;;;;;;;8.95;5.03;;;3.20;96.70;;;;;;5016527;28;20053;-79
2024/01/22 00:42:27;;;;;;;5.72;3.45;;;3.20;96.70;;;;;;5010159;28;20066;-78
2024/01/22 00:44:55;;;;;;;5.82;3.70;;;3.10;96.70;;;;;;5008148;28;20073;-79
2024/01/22 00:47:24;;;;;;;6.88;4.25;;;3.20;96.70;;;;;;5010038;28;20062;-79
2024/01/22 00:49:53;;;;;;;6.75;4.03;;;3.10;96.70;;;;;;5007566;28;20049;-79
2024/01/22 00:52:22;;;;;;;7.47;4.40;;;3.10;96.70;;;;;;5013997;28;20064;-79
2024/01/22 00:54:52;;;;;;;7.70;4.35;;;3.10;96.70;;;;;;5033338;28;20077;-79
2024/01/22 00:57:23;;;;;;;8.80;5.25;;;3.00;96.70;;;;;;5012120;28;20084;-79
2024/01/22 00:59:52;;;;;;;9.25;5.53;;;3.00;96.70;;;;;;5011819;28;20204;-79
2024/01/22 01:02:21;;;;;;;7.15;4.72;;;3.00;96.70;;;;;;5018624;28;20713;-79
2024/01/22 01:04:49;;;;;;;8.57;5.10;;;2.90;96.70;;;;;;5010531;28;20093;-79
2024/01/22 01:07:18;;;;;;;8.85;5.30;;;3.00;96.70;;;;;;4992499;28;20060;-79
2024/01/22 01:09:48;;;;;;;8.85;5.07;;;2.90;96.70;;;;;;5018591;28;20056;-79
2024/01/22 01:12:18;;;;;;;9.15;5.13;;;3.00;96.70;;;;;;5066869;28;20056;-78
2024/01/22 01:14:46;;;;;;;7.95;4.75;;;3.00;96.70;;;;;;5071169;28;20044;-78
2024/01/22 01:17:17;;;;;;;7.35;4.70;;;3.00;96.70;;;;;;5068047;28;20060;-79
2024/01/22 01:19:46;;;;;;;9.25;4.72;;;3.00;96.70;;;;;;5068480;28;20056;-78
2024/01/22 01:22:17;;;;;;;7.82;5.20;;;2.80;96.70;;;;;;5076122;28;20048;-79
2024/01/22 01:24:47;;;;;;;8.00;5.55;;;2.80;96.70;;;;;;5077900;28;20044;-79
2024/01/22 01:27:18;;;;;;;8.68;4.65;;;2.80;96.70;;;;;;5074862;28;20600;-79
2024/01/22 01:29:50;;;;;;;11.18;5.38;;;2.80;96.70;;;;;;5077387;28;20118;-80
2024/01/22 01:32:21;;;;;;;7.78;4.95;;;2.80;96.70;;;;;;5070715;28;20881;-79
2024/01/22 01:34:50;;;;;;;8.93;4.82;;;2.70;96.70;;;;;;5077518;28;20094;-79
2024/01/22 01:37:18;;;;;;;7.25;4.57;;;2.60;96.70;;;;;;5079200;28;20060;-80
2024/01/22 01:39:48;;;;;;;6.30;4.10;;;2.50;96.70;;;;;;5056104;28;20064;-80
2024/01/22 01:42:20;;;;;;;7.63;4.60;;;2.50;96.70;;;;;;5071087;28;20480;-80
2024/01/22 01:44:53;;;;;;;6.47;3.95;;;2.60;96.70;;;;;;5069802;28;20815;-80
2024/01/22 01:47:23;;;;;;;7.03;4.38;;;2.70;96.70;;;;;;5052616;28;20109;-80
2024/01/22 01:49:52;;;;;;;9.45;4.53;;;2.70;96.70;;;;;;5077505;28;20055;-79
2024/01/22 01:52:22;;;;;;;6.40;4.53;;;2.60;96.70;;;;;;5053542;28;20066;-80
2024/01/22 01:54:52;;;;;;;8.32;4.93;;;2.70;96.70;;;;;;5068811;28;20452;-78
2024/01/22 01:57:25;;;;;;;9.13;4.47;;;2.70;96.70;;;;;;5068567;28;20448;-78
2024/01/22 01:59:55;;;;;;;6.22;3.75;;;2.70;96.70;;;;;;5066980;28;20053;-78
2024/01/22 02:02:24;;;;;;;6.63;3.85;;;2.60;96.70;;;;;;5067780;28;20581;-79
2024/01/22 02:04:52;;;;;;;6.40;3.55;;;2.60;96.70;;;;;;5068083;28;20087;-78
2024/01/22 02:07:21;;;;;;;6.05;3.13;;;2.50;96.70;;;;;;5049483;28;20076;-77
2024/01/22 02:09:53;;;;;;;5.88;3.20;;;2.60;96.70;;;;;;5066450;28;20631;-77
2024/01/22 02:12:24;;;;;;;4.63;3.20;;;2.60;96.70;;;;;;5059653;28;20564;-77
2024/01/22 02:14:53;;;;;;;5.75;2.97;;;2.50;96.70;;;;;;5067714;28;20048;-77
2024/01/22 02:17:25;;;;;;;5.13;3.15;;;2.40;96.70;;;;;;5065739;28;20057;-77
2024/01/22 02:19:54;;;;;;;5.03;2.85;;;2.30;96.70;;;;;;5063602;28;20418;-77
2024/01/22 02:22:25;;;;;;;5.22;3.20;;;2.30;96.70;;;;;;5066651;28;20593;-77
2024/01/22 02:24:56;;;;;;;6.60;3.78;;;2.30;96.70;;;;;;5067708;28;20106;-77
2024/01/22 02:27:25;;;;;;;6.22;3.92;;;2.40;96.70;;;;;;5066808;28;20106;-78
2024/01/22 02:29:55;;;;;;;5.68;3.83;;;2.30;96.70;;;;;;5065934;28;20051;-78
2024/01/22 02:32:25;;;;;;;8.00;4.03;;;2.30;96.70;;;;;;5067630;28;20048;-77
2024/01/22 02:34:55;;;;;;;6.38;4.00;;;2.20;96.70;;;;;;5066087;28;20501;-77
2024/01/22 02:37:24;;;;;;;6.47;3.90;;;2.20;96.70;;;;;;5066236;28;20064;-77
2024/01/22 02:39:52;;;;;;;6.75;3.88;;;2.20;96.70;;;;;;5066555;28;20417;-77
2024/01/22 02:42:22;;;;;;;7.20;4.10;;;2.20;96.70;;;;;;5060714;28;20158;-77
2024/01/22 02:44:51;;;;;;;4.90;3.55;;;2.20;96.70;;;;;;5066653;28;20045;-77
2024/01/22 02:47:20;;;;;;;7.85;4.13;;;2.20;96.70;;;;;;5066130;28;20088;-76
2024/01/22 02:49:49;;;;;;;7.72;4.07;;;2.10;96.70;;;;;;5073464;28;20274;-77
2024/01/22 02:52:18;;;;;;;9.73;4.35;;;2.10;96.70;;;;;;5080437;28;20105;-77
2024/01/22 02:54:46;;;;;;;6.68;3.97;;;2.10;96.70;;;;;;5076338;28;20048;-77
2024/01/22 02:57:16;;;;;;;7.30;4.30;;;2.10;96.70;;;;;;5075441;28;20651;-77
2024/01/22 02:59:50;;;;;;;5.80;3.95;;;2.10;96.70;;;;;;5085220;28;20580;-78
2024/01/22 03:02:22;;;;;;;7.40;3.92;;;2.10;96.70;;;;;;5085840;28;20052;-77
2024/01/22 03:04:51;;;;;;;7.93;4.50;;;2.10;96.70;;;;;;5085582;28;20064;-78
2024/01/22 03:07:23;;;;;;;6.22;4.32;;;2.00;96.70;;;;;;5076668;28;20048;-77
2024/01/22 03:09:52;;;;;;;7.13;4.25;;;2.10;96.70;;;;;;5086212;28;20055;-77
2024/01/22 03:12:22;;;;;;;6.90;4.07;;;2.10;96.70;;;;;;5084368;28;20547;-77
2024/01/22 03:14:53;;;;;;;8.23;4.15;;;2.00;96.70;;;;;;5082574;28;20052;-77
2024/01/22 03:17:22;;;;;;;7.63;3.85;;;2.00;96.70;;;;;;5076679;28;20067;-77
2024/01/22 03:19:51;;;;;;;5.93;3.42;;;2.00;96.70;;;;;;5085492;28;20063;-77
2024/01/22 03:22:22;;;;;;;6.20;3.50;;;2.00;96.70;;;;;;5076724;28;20140;-78
2024/01/22 03:24:52;;;;;;;5.00;3.53;;;1.90;96.70;;;;;;5075419;28;20151;-77
2024/01/22 03:27:22;;;;;;;6.53;3.72;;;2.00;96.70;;;;;;5065521;28;20105;-77
2024/01/22 03:29:53;;;;;;;6.32;3.70;;;2.00;96.70;;;;;;5080937;28;20159;-77
2024/01/22 03:32:24;;;;;;;6.40;3.70;;;2.00;96.70;;;;;;5071832;28;20061;-77
2024/01/22 03:34:54;;;;;;;5.93;3.70;;;1.90;96.70;;;;;;5084655;28;20056;-77
2024/01/22 03:37:23;;;;;;;5.38;3.55;;;1.90;96.70;;;;;;5066846;28;20106;-77
2024/01/22 03:39:53;;;;;;;5.80;3.53;;;2.00;96.70;;;;;;5079073;28;20056;-77
2024/01/22 03:42:23;;;;;;;6.55;3.92;;;2.00;96.70;;;;;;5077952;28;20083;-77
2024/01/22 03:44:55;;;;;;;6.85;3.38;;;1.90;96.70;;;;;;5077336;28;20059;-77
2024/01/22 03:47:24;;;;;;;6.03;3.38;;;1.80;96.70;;;;;;5076675;28;20139;-77
2024/01/22 03:49:52;;;;;;;5.43;3.42;;;1.70;96.70;;;;;;5071701;28;20060;-77
2024/01/22 03:52:22;;;;;;;6.35;3.67;;;1.80;96.70;;;;;;5051518;28;20154;-77
2024/01/22 03:54:50;;;;;;;6.63;3.78;;;1.80;96.70;;;;;;5066097;28;20048;-77
2024/01/22 03:57:19;;;;;;;9.65;3.97;;;1.70;96.70;;;;;;5065223;28;20058;-77
2024/01/22 03:59:48;;;;;;;7.20;4.13;;;1.80;96.70;;;;;;5067402;28;20048;-77
2024/01/22 04:02:19;;;;;;;5.93;3.72;;;1.80;96.70;;;;;;5054164;28;20053;-77
2024/01/22 04:04:47;;;;;;;7.38;3.78;;;1.70;96.70;;;;;;5058409;28;20052;-77
2024/01/22 04:07:17;;;;;;;8.13;3.78;;;1.60;96.70;;;;;;5065477;28;20053;-77
2024/01/22 04:09:45;;;;;;;5.65;3.60;;;1.60;96.70;;;;;;5058521;28;20541;-77
2024/01/22 04:12:13;;;;;;;7.10;3.30;;;1.60;96.70;;;;;;5055085;28;20048;-77
2024/01/22 04:14:43;;;;;;;4.60;3.00;;;1.60;96.70;;;;;;5072726;28;20052;-77
2024/01/22 04:17:12;;;;;;;5.30;3.08;;;1.60;96.70;;;;;;5064951;28;20143;-77
2024/01/22 04:19:44;;;;;;;6.28;3.20;;;1.50;96.70;;;;;;5064114;28;20059;-77
2024/01/22 04:22:14;;;;;;;5.97;3.10;;;1.50;96.70;;;;;;5065533;28;20573;-77
2024/01/22 04:24:43;;;;;;;5.45;3.13;;;1.60;96.70;;;;;;5065296;28;20124;-77
2024/01/22 04:27:13;;;;;;;6.53;3.47;;;1.50;96.70;;;;;;5057152;28;20517;-77
2024/01/22 04:29:43;;;;;;;5.40;3.25;;;1.50;96.70;;;;;;5065502;28;20059;-77
2024/01/22 04:32:11;;;;;;;6.93;3.47;;;1.40;96.70;;;;;;5051577;28;20056;-77
2024/01/22 04:34:40;;;;;;;5.55;2.95;;;1.40;96.70;;;;;;5058518;28;20057;-78
2024/01/22 04:37:28;;;;;;;5.82;2.70;;;1.30;96.70;;;;;;5054412;28;20415;-76
2024/01/22 04:40:08;;;;;;;5.22;2.90;;;1.40;96.70;;;;;;5055407;28;20472;-77
2024/01/22 04:42:37;;;;;;;5.72;2.83;;;1.30;96.70;;;;;;5056820;28;20081;-77
2024/01/22 04:45:07;;;;;;;5.43;2.72;;;1.30;96.70;;;;;;5055640;28;20513;-77
2024/01/22 04:47:35;;;;;;;5.22;2.42;;;1.30;96.70;;;;;;5064896;28;20143;-77
2024/01/22 04:50:07;;;;;;;4.53;2.60;;;1.20;96.70;;;;;;5075297;28;20130;-77
2024/01/22 04:52:38;;;;;;;3.38;2.35;;;1.20;96.70;;;;;;5077028;28;20059;-77
2024/01/22 04:55:09;;;;;;;5.32;2.65;;;1.20;96.70;;;;;;5085195;28;20075;-77
2024/01/22 04:57:48;;;;;;;3.97;2.25;;;1.30;96.70;;;;;;5082591;28;20570;-77
2024/01/22 05:00:18;;;;;;;7.88;2.70;;;1.30;96.70;;;;;;5084424;28;20048;-77
2024/01/22 05:02:46;;;;;;;4.93;2.50;;;1.30;96.70;;;;;;5067196;28;20048;-77
2024/01/22 05:05:15;;;;;;;4.57;2.47;;;1.30;96.70;;;;;;5084219;28;20048;-77
2024/01/22 05:07:47;;;;;;;7.68;2.78;;;1.20;96.70;;;;;;5092638;28;20142;-77
2024/01/22 05:10:17;;;;;;;4.45;2.90;;;1.10;96.70;;;;;;5088438;28;20055;-77
2024/01/22 05:12:46;;;;;;;8.98;4.90;;;1.10;96.70;;;;;;5089390;28;20044;-77
2024/01/22 05:15:16;;;;;;;6.63;3.88;;;1.20;96.70;;;;;;5087527;28;20152;-77
2024/01/22 05:17:44;;;;;;;6.50;3.10;;;1.20;96.70;;;;;;5087692;28;20047;-77
2024/01/22 05:20:14;;;;;;;6.22;3.42;;;1.30;96.70;;;;;;5088117;28;20125;-77
2024/01/22 05:22:46;;;;;;;4.65;2.78;;;1.30;96.70;;;;;;5079702;28;20059;-77
2024/01/22 05:25:15;;;;;;;6.97;3.20;;;1.10;96.70;;;;;;5086917;28;20063;-77
2024/01/22 05:27:45;;;;;;;5.93;3.33;;;1.10;96.70;;;;;;5079893;28;20474;-77
2024/01/22 05:30:14;;;;;;;5.82;3.33;;;1.00;96.70;;;;;;5070479;28;20056;-77
2024/01/22 05:32:44;;;;;;;4.20;3.00;;;1.00;96.70;;;;;;5079424;28;20052;-77
2024/01/22 05:35:15;;;;;;;6.22;3.42;;;1.00;96.70;;;;;;5079353;28;20052;-77
2024/01/22 05:37:48;;;;;;;8.48;4.00;;;0.90;96.70;;;;;;5087859;28;20060;-77
2024/01/22 05:40:18;;;;;;;6.95;3.45;;;1.00;96.70;;;;;;5088345;28;20523;-77
2024/01/22 05:42:47;;;;;;;6.82;3.30;;;1.10;96.70;;;;;;5069549;28;20052;-77
2024/01/22 05:45:17;;;;;;;5.25;3.65;;;1.10;96.70;;;;;;5085496;28;20056;-77
2024/01/22 05:47:45;;;;;;;7.38;3.80;;;1.10;96.70;;;;;;5085813;28;20095;-77
2024/01/22 05:50:15;;;;;;;7.88;4.40;;;1.10;96.70;;;;;;5086910;28;20044;-77
2024/01/22 05:52:44;;;;;;;6.10;3.00;;;1.20;96.70;;;;;;5083794;28;20068;-77
2024/01/22 05:55:14;;;;;;;7.15;3.53;;;1.20;96.70;;;;;;5087666;28;20547;-76
2024/01/22 05:57:48;;;;;;;4.25;2.53;;;1.20;96.70;;;;;;5077210;28;20051;-77
2024/01/22 06:00:18;;;;;;;4.07;2.42;;;1.10;96.70;;;;;;5087727;28;20126;-76
2024/01/22 06:02:48;;;;;;;6.05;3.13;;;1.00;96.70;;;;;;5092869;28;20669;-76
2024/01/22 06:05:18;;;;;;;4.90;2.80;;;1.00;96.70;;;;;;5085523;28;20052;-77
2024/01/22 06:07:48;;;;;;;3.90;2.60;;;0.90;96.70;;;;;;5083189;28;20163;-77
2024/01/22 06:10:18;;;;;;;3.60;2.17;;;0.90;96.70;;;;;;5078020;28;20696;-77
2024/01/22 06:12:47;;;;;;;5.38;2.30;;;0.90;96.70;;;;;;5078272;28;20056;-77
2024/01/22 06:15:16;;;;;;;4.20;2.22;;;0.80;96.70;;;;;;5060061;28;20052;-77
2024/01/22 06:17:46;;;;;;;5.00;2.53;;;0.80;96.70;;;;;;5068532;28;20056;-77
2024/01/22 06:20:15;;;;;;;5.50;2.72;;;0.90;96.70;;;;;;5072666;28;20053;-77
2024/01/22 06:22:44;;;;;;;6.43;2.80;;;0.80;96.70;;;;;;5076541;28;20057;-77
2024/01/22 06:25:16;;;;;;;4.18;2.42;;;0.80;96.70;;;;;;5076919;28;20521;-77
2024/01/22 06:27:48;;;;;;;6.32;2.47;;;0.80;96.70;;;;;;5068653;28;20426;-77
2024/01/22 06:30:16;;;;;;;6.57;3.05;;;0.80;96.70;;;;;;5074590;28;20121;-76
2024/01/22 06:32:45;;;;;;;4.13;2.92;;;0.80;96.70;;;;;;5086265;28;20516;-76
2024/01/22 06:35:15;;;;;;;5.75;3.10;;;0.90;96.70;;;;;;5076244;28;20048;-76
2024/01/22 06:37:45;;;;;;;4.82;2.90;;;0.90;96.70;;;;;;5078339;28;20048;-76
2024/01/22 06:40:16;;;;;;;5.93;3.28;;;0.80;96.70;;;;;;5073450;28;20063;-76
2024/01/22 06:42:47;;;;;;;6.90;3.28;;;0.80;96.70;;;;;;5085630;28;20051;-76
2024/01/22 06:45:18;;;;;;;6.45;3.63;;;0.90;96.70;;;;;;5086335;28;20603;-76
2024/01/22 06:47:48;;;;;;;6.13;3.33;;;0.90;96.70;;;;;;5086966;28;20048;-76
2024/01/22 06:50:16;;;;;;;10.63;3.72;;;0.90;96.70;;;;;;5070338;28;20052;-76
2024/01/22 06:52:48;;;;;;;6.70;3.38;;;1.00;96.70;;;;;;5048396;28;20053;-76
2024/01/22 06:55:16;;;;;;;7.53;3.60;;;0.90;96.70;;;;;;5063085;28;20062;-76
2024/01/22 06:57:48;;;;;;;7.15;3.42;;;0.90;96.70;;;;;;5058507;28;20138;-76
2024/01/22 07:00:19;;;;;;;4.85;3.00;;;0.90;96.70;;;;;;5049573;28;20506;-76
2024/01/22 07:02:49;;;;;;;6.32;3.47;;;1.00;96.70;;;;;;5070382;28;20658;-76
2024/01/22 07:05:21;;;;;;;6.03;3.20;;;1.00;96.70;;;;;;5068269;28;20048;-76
2024/01/22 07:07:49;;;;;;;7.30;3.80;;;1.00;96.70;;;;;;5065937;28;20106;-76
2024/01/22 07:10:18;;;;;;;5.60;3.30;;;1.10;96.70;;;;;;5052550;28;20048;-76
2024/01/22 07:12:48;;;;;;;5.53;3.63;;;1.10;96.70;;;;;;5066466;28;20092;-77
2024/01/22 07:15:16;;;;;;;6.47;3.40;;;1.00;96.70;;;;;;5069140;28;20052;-76
2024/01/22 07:17:44;;;;;;;6.85;3.80;;;1.00;96.70;;;;;;5033316;28;20159;-77
2024/01/22 07:20:15;;;;;;;8.55;4.53;;;1.10;96.70;;;;;;5047775;28;20135;-76
2024/01/22 07:22:45;;;;;;;7.88;4.60;;;1.00;96.70;;;;;;5063239;28;20058;-76
2024/01/22 07:25:17;;;;;;;6.80;4.13;;;1.10;96.70;;;;;;5061481;28;20832;-77
2024/01/22 07:27:48;;;;;;;7.68;5.03;;;1.00;96.70;;;;;;5067819;28;20106;-77
2024/01/22 07:30:17;;;;;;;7.07;3.92;;;1.00;96.70;;;;;;5063661;28;20075;-76
2024/01/22 07:32:47;;;;;;;9.70;4.65;;;1.00;96.70;;;;;;5068066;28;20102;-77
2024/01/22 07:35:16;;;;;;;9.48;5.10;;;1.10;96.70;;;;;;5063228;28;20139;-76
2024/01/22 07:37:45;;;;;;;8.15;4.65;;;1.10;96.70;;;;;;5071612;28;20067;-77
2024/01/22 07:40:16;;;;;;;9.68;5.47;;;1.10;96.70;;;;;;5059456;28;20449;-78
2024/01/22 07:42:44;;;;;;;12.40;4.90;;;1.10;96.70;;;;;;5065003;28;20662;-78
2024/01/22 07:45:15;;;;;;;11.20;5.20;;;1.20;96.70;;;;;;5065841;28;20064;-77
2024/01/22 07:47:44;;;;;;;11.50;6.72;;;1.20;96.70;;;;;;5059288;28;20053;-77
2024/01/22 07:50:14;;;;;;;13.98;7.32;;;1.40;96.70;;;;;;5068416;28;20047;-76
2024/01/22 07:52:43;;;;;;;14.48;7.30;;;1.50;96.70;;;;;;5086179;28;20596;-74
2024/01/22 07:55:17;;;;;;;13.05;5.88;;;1.50;96.70;;;;;;5085441;28;20052;-76
2024/01/22 07:57:46;;;;;;;10.80;5.47;;;1.60;96.70;;;;;;5090278;28;20051;-74
2024/01/22 08:00:17;;;;;;;9.48;4.90;;;1.70;96.70;;;;;;5068041;28;20056;-76
2024/01/22 08:02:46;;;;;;;9.50;5.68;;;1.60;96.70;;;;;;5086685;28;20113;-76
2024/01/22 08:05:15;;;;;;;9.25;4.68;;;1.60;96.70;;;;;;5080067;28;20052;-74
2024/01/22 08:07:43;;;;;;;8.38;4.85;;;1.60;96.70;;;;;;5084281;28;20056;-76
2024/01/22 08:10:13;;;;;;;7.80;4.00;;;1.60;96.70;;;;;;5083375;28;20046;-78
2024/01/22 08:12:42;;;;;;;12.63;4.75;;;1.60;96.70;;;;;;5086205;28;20052;-76
2024/01/22 08:15:14;;;;;;;8.27;3.63;;;1.70;96.70;;;;;;5090576;28;20134;-74
2024/01/22 08:17:49;;;;;;;7.72;4.20;;;1.80;96.70;;;;;;5086261;28;20159;-79
2024/01/22 08:20:18;;;;;;;7.05;4.30;;;1.80;96.70;;;;;;5083778;28;20051;-76
2024/01/22 08:23:14;;;;;;;7.55;3.80;;;1.80;96.70;;;;;;5051235;28;20091;-76
2024/01/22 08:25:47;;;;;;;6.75;4.28;;;1.90;96.70;;;;;;5092220;28;20048;-77
2024/01/22 08:29:06;;;;;;;6.63;4.07;;;2.00;96.70;;;;;;5085087;28;20051;-77
2024/01/22 08:31:59;;;;;;;6.90;3.97;;;2.20;96.70;;;;;;5086859;28;20060;-77
2024/01/22 08:34:40;;;;;;;7.28;4.45;;;2.10;96.70;;;;;;5081977;28;20067;-80
2024/01/22 08:37:26;;;;;;;6.85;4.30;;;2.20;96.70;;;;;;5085480;28;20060;-79
2024/01/22 08:39:54;;;;;;;6.20;4.23;;;2.30;96.70;;;;;;5084547;28;20059;-80
2024/01/22 08:42:22;;;;;;;6.70;4.03;;;2.20;96.70;;;;;;5088356;28;20301;-78
2024/01/22 08:44:51;;;;;;;6.53;3.83;;;2.30;96.70;;;;;;5086062;28;20623;-79
2024/01/22 08:47:19;;;;;;;11.27;4.50;;;2.30;96.70;;;;;;5087142;28;20074;-82
2024/01/22 08:49:49;;;;;;;6.20;4.15;;;2.30;96.70;;;;;;5063261;28;20694;-82
2024/01/22 08:52:17;;;;;;;7.68;4.35;;;2.40;96.70;;;;;;5069017;28;20056;-81
2024/01/22 08:54:45;;;;;;;6.35;4.35;;;2.40;96.70;;;;;;5069083;28;20067;-81
2024/01/22 08:57:14;;;;;;;7.05;4.15;;;2.50;96.70;;;;;;5076262;28;20607;-79
2024/01/22 08:59:42;;;;;;;11.05;5.10;;;2.60;96.70;;;;;;5085146;28;20131;-79
2024/01/22 09:02:11;;;;;;;8.30;3.97;;;2.80;96.70;;;;;;5063217;28;20063;-78
2024/01/22 09:04:49;;;;;;;9.82;5.13;;;3.00;96.70;;;;;;5070041;28;20067;-79
2024/01/22 09:07:20;;;;;;;9.85;5.70;;;3.20;96.70;;;;;;5066947;28;20086;-77
2024/01/22 09:09:50;;;;;;;10.95;6.05;;;3.20;96.70;;;;;;5068145;28;20060;-79
2024/01/22 09:12:19;;;;;;;10.35;6.10;;;3.20;96.70;;;;;;5082493;28;20086;-80
2024/01/22 09:14:47;;;;;;;14.80;7.82;;;3.40;96.70;;;;;;5082971;28;20129;-82
2024/01/22 09:17:17;;;;;;;10.18;6.57;;;3.50;96.70;;;;;;5082356;28;20417;-78
2024/01/22 09:19:45;;;;;;;10.45;6.68;;;3.60;96.70;;;;;;5076818;28;20060;-77
2024/01/22 09:22:15;;;;;;;12.70;7.70;;;3.80;96.70;;;;;;5055296;28;20118;-78
2024/01/22 09:24:44;;;;;;;11.77;7.32;;;3.80;96.70;;;;;;5061912;28;20056;-79
2024/01/22 09:27:12;;;;;;;11.43;6.57;;;4.00;96.70;;;;;;5065986;28;20048;-76
2024/01/22 09:29:41;;;;;;;8.45;5.60;;;4.30;96.70;;;;;;5060868;28;20052;-78
2024/01/22 09:32:09;;;;;;;9.00;5.47;;;4.40;96.70;;;;;;5062169;28;20135;-77
2024/01/22 09:34:41;;;;;;;8.90;4.90;;;4.60;96.70;;;;;;5057573;28;20470;-76
2024/01/22 09:37:11;;;;;;;10.38;6.03;;;4.70;96.70;;;;;;5057117;28;20057;-77
2024/01/22 09:39:41;;;;;;;7.95;4.90;;;4.90;96.70;;;;;;5055751;28;20135;-77
2024/01/22 09:42:10;;;;;;;6.63;4.68;;;5.00;96.70;;;;;;5036402;28;20066;-76
2024/01/22 09:44:39;;;;;;;7.35;4.88;;;5.10;96.70;;;;;;5058803;28;20060;-77
2024/01/22 09:47:09;;;;;;;6.43;4.45;;;5.30;96.70;;;;;;5042174;28;20099;-77
2024/01/22 09:49:37;;;;;;;9.75;5.00;;;5.30;96.70;;;;;;5031242;28;20091;-77
2024/01/22 09:52:15;;;;;;;6.32;4.43;;;5.50;96.70;;;;;;5056321;28;20053;-78
2024/01/22 09:54:45;;;;;;;8.35;4.47;;;5.60;96.70;;;;;;5055302;28;20143;-77
2024/01/22 09:57:17;;;;;;;8.07;4.70;;;5.60;96.70;;;;;;5054318;28;20513;-78
2024/01/22 09:59:48;;;;;;;7.43;4.63;;;5.70;96.70;;;;;;5059742;28;20087;-77
2024/01/22 10:02:20;;;;;;;8.07;4.90;;;5.80;96.70;;;;;;5050448;28;20053;-77
2024/01/22 10:04:49;;;;;;;8.70;4.45;;;5.70;96.70;;;;;;5048132;28;20052;-77
2024/01/22 10:07:18;;;;;;;7.32;5.05;;;5.90;96.70;;;;;;5058779;28;20596;-78
2024/01/22 10:09:48;;;;;;;7.07;4.53;;;6.00;96.70;;;;;;5052833;28;20053;-78
2024/01/22 10:12:16;;;;;;;8.32;4.32;;;6.20;96.70;;;;;;5055277;28;20130;-77
2024/01/22 10:14:45;;;;;;;10.93;4.60;;;6.30;96.70;;;;;;5047882;28;20182;-77
2024/01/22 10:17:16;;;;;;;8.15;5.10;;;6.20;96.70;;;;;;5048674;28;20106;-76
2024/01/22 10:19:45;;;;;;;8.68;5.60;;;6.10;96.70;;;;;;5056147;28;20064;-79
2024/01/22 10:22:17;;;;;;;7.88;5.38;;;6.10;96.70;;;;;;5062628;28;20647;-76
2024/01/22 10:24:58;;;;;;;9.15;5.57;;;6.20;96.70;;;;;;5057304;28;20053;-76
2024/01/22 10:27:27;;;;;;;7.68;5.15;;;6.20;96.70;;;;;;5063614;28;20044;-74
2024/01/22 10:30:09;;;;;;;7.70;5.40;;;6.30;96.70;;;;;;5055627;28;20556;-76
2024/01/22 10:32:38;;;;;;;10.68;5.30;;;6.30;96.70;;;;;;5060989;28;20080;-76
2024/01/22 10:35:21;;;;;;;9.40;5.65;;;6.40;96.70;;;;;;5066119;28;20052;-78
2024/01/22 10:38:05;;;;;;;10.88;5.25;;;6.40;96.70;;;;;;5062290;28;20513;-76
2024/01/22 10:40:35;;;;;;;7.07;5.13;;;6.50;96.70;;;;;;5062007;28;20787;-76
2024/01/22 10:43:26;;;;;;;9.70;5.32;;;6.60;96.70;;;;;;5057183;28;20064;-76
2024/01/22 10:45:58;;;;;;;8.95;5.07;;;6.80;96.70;;;;;;5058425;28;20072;-80
2024/01/22 10:48:28;;;;;;;9.65;5.20;;;7.00;96.70;;;;;;5064708;28;20475;-79
2024/01/22 10:51:11;;;;;;;7.53;5.30;;;7.00;96.70;;;;;;5056626;28;20200;-77
2024/01/22 10:53:42;;;;;;;10.02;5.63;;;7.20;96.70;;;;;;5053283;28;20064;-76
2024/01/22 10:56:22;;;;;;;10.25;5.95;;;7.40;96.70;;;;;;5055270;28;20568;-77
2024/01/22 10:58:51;;;;;;;;;;;7.40;96.70;;;;;;5065820;28;20106;-77
2024/01/22 11:01:24;;;;;;;9.68;5.40;;;7.30;96.70;;;;;;5059172;28;19924;-78
2024/01/22 11:03:55;;;;;;;8.50;5.03;;;7.30;96.70;;;;;;5038480;28;20087;-77
2024/01/22 11:06:30;;;;;;;8.35;5.10;;;7.40;96.70;;;;;;5062679;28;20068;-77
2024/01/22 11:09:04;;;;;;;9.23;5.60;;;7.50;96.70;;;;;;5057514;28;20079;-76
2024/01/22 11:11:38;;;;;;;8.65;5.65;;;7.60;96.70;;;;;;5065708;28;20071;-76
2024/01/22 11:14:07;;;;;;;6.78;4.80;;;7.70;96.70;;;;;;5047101;28;20378;-76
2024/01/22 11:16:36;;;;;;;8.73;5.15;;;7.80;96.70;;;;;;5060647;28;20094;-77
2024/01/22 11:19:05;;;;;;;9.50;4.78;;;8.00;96.70;;;;;;5060008;28;20057;-75
2024/01/22 11:21:37;;;;;;;7.30;4.40;;;8.10;96.70;;;;;;5062420;28;20064;-80
2024/01/22 11:24:12;;;;;;;6.93;3.53;;;8.30;96.70;;;;;;5058917;28;20064;-80
2024/01/22 11:26:43;;;;;;;7.53;4.25;;;8.40;96.70;;;;;;5046674;28;20118;-78
2024/01/22 11:29:14;;;;;;;6.35;4.32;;;8.50;96.70;;;;;;5045339;28;20061;-76
2024/01/22 11:31:43;;;;;;;5.47;3.80;;;8.60;96.70;;;;;;5046669;28;20076;-78
2024/01/22 11:34:35;;;;;;;6.20;3.95;;;8.60;96.70;;;;;;5055601;28;20068;-78
2024/01/22 11:37:09;;;;;;;7.78;4.10;;;8.70;96.70;;;;;;5041567;28;20057;-76
2024/01/22 11:39:42;;;;;;;5.97;3.92;;;8.80;96.70;;;;;;5050239;28;20102;-76
2024/01/22 11:42:28;;;;;;;7.68;3.97;;;8.90;96.70;;;;;;5064700;28;20067;-77
2024/01/22 11:45:08;;;;;;;6.95;4.03;;;9.10;96.70;;;;;;5056160;28;20057;-77
2024/01/22 11:47:38;;;;;;;8.20;5.15;;;9.20;96.70;;;;;;5065112;28;20820;-77
2024/01/22 11:50:08;;;;;;;11.25;6.65;;;9.30;96.70;;;;;;5043024;28;20064;-78
2024/01/22 11:52:37;;;;;;;8.10;5.50;;;9.30;96.70;;;;;;5059705;28;20573;-77
2024/01/22 11:55:07;;;;;;;9.52;5.57;;;9.40;96.70;;;;;;5055354;28;20694;-77
2024/01/22 11:57:41;;;;;;;8.00;5.38;;;9.50;96.70;;;;;;5063459;28;20053;-78
2024/01/22 12:00:22;;;;;;;8.68;5.13;;;9.60;96.70;;;;;;5068948;28;20063;-80
2024/01/22 12:02:56;;;;;;;7.22;4.47;;;9.80;96.70;;;;;;5062433;28;20052;-79
2024/01/22 12:05:27;;;;;;;9.68;4.70;;;9.80;96.70;;;;;;5050383;28;20060;-79
2024/01/22 12:07:58;;;;;;;6.68;4.53;;;9.90;96.70;;;;;;5050766;28;20053;-80
2024/01/22 12:11:02;;;;;;;7.75;5.05;;;10.00;96.70;;;;;;5048831;28;20160;-78
2024/01/22 12:13:32;;;;;;;7.47;5.13;;;10.10;96.70;;;;;;5022886;28;20063;-79
2024/01/22 12:16:01;;;;;;;7.75;5.18;;;10.30;96.70;;;;;;5039957;28;20057;-79
2024/01/22 12:18:29;;;;;;;7.60;5.57;;;10.40;96.70;;;;;;5060494;28;20414;-79
2024/01/22 12:20:59;;;;;;;10.32;6.45;;;10.40;96.70;;;;;;5070911;28;20063;-78
2024/01/22 12:23:34;;;;;;;9.82;5.88;;;10.50;96.70;;;;;;5066911;28;20064;-79
2024/01/22 12:26:03;;;;;;;10.65;6.80;;;10.60;96.70;;;;;;5057058;28;20052;-79
2024/01/22 12:28:35;;;;;;;10.23;5.95;;;10.70;96.70;;;;;;5069070;28;20048;-78
2024/01/22 12:31:05;;;;;;;23.63;16.73;;;10.90;96.70;;;;;;5073240;28;20084;-79
2024/01/22 12:33:36;;;;;;;44.75;30.83;;;10.90;96.70;;;;;;5069148;28;20064;-79
2024/01/22 12:36:08;;;;;;;22.13;13.75;;;11.00;96.70;;;;;;5060376;28;20068;-80
2024/01/22 12:38:49;;;;;;;23.45;15.13;;;11.00;96.70;;;;;;5054556;28;20053;-79
2024/01/22 12:41:19;;;;;;;10.75;7.22;;;11.10;96.70;;;;;;5060517;28;20060;-79
2024/01/22 12:43:54;;;;;;;7.68;5.32;;;11.20;96.70;;;;;;5068879;28;20521;-79
2024/01/22 12:46:26;;;;;;;54.13;36.97;;;11.30;96.70;;;;;;5067715;28;20084;-79
2024/01/22 12:48:55;;;;;;;14.98;9.85;;;11.30;96.70;;;;;;5074984;28;20620;-79
2024/01/22 12:51:28;;;;;;;9.48;6.20;;;11.50;96.70;;;;;;5090161;28;20059;-79
2024/01/22 12:53:57;;;;;;;22.25;16.38;;;11.70;96.70;;;;;;5088327;28;20060;-79
2024/01/22 12:56:25;;;;;;;40.50;30.85;;;11.80;96.70;;;;;;5089316;28;20048;-79
2024/01/22 12:58:55;;;;;;;25.48;17.35;;;11.90;96.70;;;;;;5073066;28;20055;-79
2024/01/22 13:01:26;;;;;;;12.38;8.23;;;11.90;96.70;;;;;;5088251;28;20532;-79
2024/01/22 13:03:56;;;;;;;8.55;5.63;;;12.00;96.70;;;;;;5092844;28;20059;-79
2024/01/22 13:06:25;;;;;;;9.18;5.80;;;11.90;96.70;;;;;;5089447;28;20053;-79
2024/01/22 13:08:54;;;;;;;8.85;6.47;;;12.10;96.70;;;;;;5089140;28;20082;-78
2024/01/22 13:11:25;;;;;;;11.40;5.68;;;12.00;96.70;;;;;;5088346;28;20684;-79
2024/01/22 13:13:57;;;;;;;10.13;5.75;;;12.10;96.70;;;;;;5088079;28;20056;-79
2024/01/22 13:16:25;;;;;;;7.63;5.53;;;12.20;96.70;;;;;;5086480;28;20059;-79